sensor_id;sensor_type;location;lat;lon;timestamp;temperature;humidity
72602;DHT22;60644;55.858;37.390;2022-10-31T00:01:36;2.74;53.97
72602;DHT22;60644;55.858;37.390;2022-10-31T00:04:03;2.73;53.83
72602;DHT22;60644;55.858;37.390;2022-10-31T00:06:29;2.71;53.40
72602;DHT22;60644;55.858;37.390;2022-10-31T00:09:00;2.68;54.22
72602;DHT22;60644;55.858;37.390;2022-10-31T00:11:27;2.69;54.41
72602;DHT22;60644;55.858;37.390;2022-10-31T00:13:53;2.64;53.75
72602;DHT22;60644;55.858;37.390;2022-10-31T00:16:23;2.55;53.68
72602;DHT22;60644;55.858;37.390;2022-10-31T00:18:53;2.55;54.47
72602;DHT22;60644;55.858;37.390;2022-10-31T00:21:20;2.58;55.23
72602;DHT22;60644;55.858;37.390;2022-10-31T00:23:46;2.53;54.95
72602;DHT22;60644;55.858;37.390;2022-10-31T00:26:12;2.47;54.41
72602;DHT22;60644;55.858;37.390;2022-10-31T00:28:38;2.44;54.64
72602;DHT22;60644;55.858;37.390;2022-10-31T00:31:06;2.44;54.97
72602;DHT22;60644;55.858;37.390;2022-10-31T00:33:34;2.40;55.23
72602;DHT22;60644;55.858;37.390;2022-10-31T00:36:03;2.41;55.69
72602;DHT22;60644;55.858;37.390;2022-10-31T00:38:29;2.45;54.71
72602;DHT22;60644;55.858;37.390;2022-10-31T00:40:55;2.44;54.77
72602;DHT22;60644;55.858;37.390;2022-10-31T00:43:21;2.45;55.02
72602;DHT22;60644;55.858;37.390;2022-10-31T00:45:47;2.43;54.36
72602;DHT22;60644;55.858;37.390;2022-10-31T00:48:12;2.46;56.13
72602;DHT22;60644;55.858;37.390;2022-10-31T00:50:39;2.45;54.36
72602;DHT22;60644;55.858;37.390;2022-10-31T00:53:05;2.39;54.24
72602;DHT22;60644;55.858;37.390;2022-10-31T00:55:31;2.35;54.59
72602;DHT22;60644;55.858;37.390;2022-10-31T00:57:57;2.27;55.08
72602;DHT22;60644;55.858;37.390;2022-10-31T01:00:23;2.29;54.89
72602;DHT22;60644;55.858;37.390;2022-10-31T01:02:49;2.31;55.90
72602;DHT22;60644;55.858;37.390;2022-10-31T01:05:15;2.21;56.05
72602;DHT22;60644;55.858;37.390;2022-10-31T01:07:42;2.26;56.31
72602;DHT22;60644;55.858;37.390;2022-10-31T01:10:10;2.26;56.46
72602;DHT22;60644;55.858;37.390;2022-10-31T01:12:43;2.15;56.77
72602;DHT22;60644;55.858;37.390;2022-10-31T01:15:10;2.07;57.93
72602;DHT22;60644;55.858;37.390;2022-10-31T01:17:36;2.10;57.88
72602;DHT22;60644;55.858;37.390;2022-10-31T01:20:04;2.07;58.67
72602;DHT22;60644;55.858;37.390;2022-10-31T01:22:31;2.07;58.74
72602;DHT22;60644;55.858;37.390;2022-10-31T01:25:00;1.99;59.50
72602;DHT22;60644;55.858;37.390;2022-10-31T01:27:29;1.91;61.48
72602;DHT22;60644;55.858;37.390;2022-10-31T01:29:58;1.95;60.49
72602;DHT22;60644;55.858;37.390;2022-10-31T01:32:24;1.80;61.94
72602;DHT22;60644;55.858;37.390;2022-10-31T01:34:51;1.72;62.86
72602;DHT22;60644;55.858;37.390;2022-10-31T01:37:17;1.72;63.12
72602;DHT22;60644;55.858;37.390;2022-10-31T01:39:43;1.62;66.31
72602;DHT22;60644;55.858;37.390;2022-10-31T01:42:18;1.50;68.17
72602;DHT22;60644;55.858;37.390;2022-10-31T01:44:50;1.43;67.68
72602;DHT22;60644;55.858;37.390;2022-10-31T01:47:19;1.42;67.69
72602;DHT22;60644;55.858;37.390;2022-10-31T01:49:51;1.45;66.78
72602;DHT22;60644;55.858;37.390;2022-10-31T01:52:26;1.50;66.07
72602;DHT22;60644;55.858;37.390;2022-10-31T01:55:12;1.49;67.02
72602;DHT22;60644;55.858;37.390;2022-10-31T01:57:44;1.49;66.42
72602;DHT22;60644;55.858;37.390;2022-10-31T02:00:12;1.47;68.10
72602;DHT22;60644;55.858;37.390;2022-10-31T02:02:41;1.49;67.47
72602;DHT22;60644;55.858;37.390;2022-10-31T02:05:15;1.50;66.62
72602;DHT22;60644;55.858;37.390;2022-10-31T02:07:48;1.48;67.96
72602;DHT22;60644;55.858;37.390;2022-10-31T02:10:20;1.45;67.27
72602;DHT22;60644;55.858;37.390;2022-10-31T02:12:47;1.41;67.51
72602;DHT22;60644;55.858;37.390;2022-10-31T02:15:14;1.42;67.44
72602;DHT22;60644;55.858;37.390;2022-10-31T02:17:42;1.40;67.50
72602;DHT22;60644;55.858;37.390;2022-10-31T02:20:19;1.34;68.86
72602;DHT22;60644;55.858;37.390;2022-10-31T02:23:14;1.27;70.24
72602;DHT22;60644;55.858;37.390;2022-10-31T02:33:52;1.32;69.47
72602;DHT22;60644;55.858;37.390;2022-10-31T02:39:16;1.26;70.50
72602;DHT22;60644;55.858;37.390;2022-10-31T02:41:52;1.26;69.70
72602;DHT22;60644;55.858;37.390;2022-10-31T02:47:08;1.33;69.47
72602;DHT22;60644;55.858;37.390;2022-10-31T02:52:20;1.33;69.01
72602;DHT22;60644;55.858;37.390;2022-10-31T02:54:47;1.32;70.21
72602;DHT22;60644;55.858;37.390;2022-10-31T02:57:16;1.27;70.15
72602;DHT22;60644;55.858;37.390;2022-10-31T02:59:53;1.27;69.91
72602;DHT22;60644;55.858;37.390;2022-10-31T03:12:38;1.31;69.84
72602;DHT22;60644;55.858;37.390;2022-10-31T03:15:28;1.34;69.54
72602;DHT22;60644;55.858;37.390;2022-10-31T03:17:58;1.33;69.18
72602;DHT22;60644;55.858;37.390;2022-10-31T03:20:34;1.33;69.34
72602;DHT22;60644;55.858;37.390;2022-10-31T03:23:02;1.33;69.49
72602;DHT22;60644;55.858;37.390;2022-10-31T03:25:30;1.37;69.35
72602;DHT22;60644;55.858;37.390;2022-10-31T03:28:01;1.36;69.54
72602;DHT22;60644;55.858;37.390;2022-10-31T03:30:29;1.40;68.99
72602;DHT22;60644;55.858;37.390;2022-10-31T03:32:58;1.42;69.37
72602;DHT22;60644;55.858;37.390;2022-10-31T03:35:28;1.48;68.85
72602;DHT22;60644;55.858;37.390;2022-10-31T03:37:57;1.53;68.54
72602;DHT22;60644;55.858;37.390;2022-10-31T03:40:26;1.54;68.84
72602;DHT22;60644;55.858;37.390;2022-10-31T03:43:00;1.53;68.06
72602;DHT22;60644;55.858;37.390;2022-10-31T03:45:32;1.53;68.39
72602;DHT22;60644;55.858;37.390;2022-10-31T03:47:59;1.54;68.46
72602;DHT22;60644;55.858;37.390;2022-10-31T03:50:29;1.50;68.71
72602;DHT22;60644;55.858;37.390;2022-10-31T03:53:11;1.52;68.19
72602;DHT22;60644;55.858;37.390;2022-10-31T03:55:40;1.50;68.30
72602;DHT22;60644;55.858;37.390;2022-10-31T03:58:10;1.43;68.97
72602;DHT22;60644;55.858;37.390;2022-10-31T04:00:40;1.45;68.71
72602;DHT22;60644;55.858;37.390;2022-10-31T04:03:30;1.47;68.91
72602;DHT22;60644;55.858;37.390;2022-10-31T04:06:04;1.46;69.21
72602;DHT22;60644;55.858;37.390;2022-10-31T04:08:42;1.47;68.94
72602;DHT22;60644;55.858;37.390;2022-10-31T04:11:18;1.40;69.55
72602;DHT22;60644;55.858;37.390;2022-10-31T04:13:56;1.37;69.97
72602;DHT22;60644;55.858;37.390;2022-10-31T04:16:23;1.38;69.55
72602;DHT22;60644;55.858;37.390;2022-10-31T04:18:50;1.39;69.38
72602;DHT22;60644;55.858;37.390;2022-10-31T04:21:16;1.39;69.56
72602;DHT22;60644;55.858;37.390;2022-10-31T04:23:42;1.42;69.10
72602;DHT22;60644;55.858;37.390;2022-10-31T04:26:16;1.38;69.84
72602;DHT22;60644;55.858;37.390;2022-10-31T04:28:43;1.41;69.90
72602;DHT22;60644;55.858;37.390;2022-10-31T04:31:11;1.41;69.70
72602;DHT22;60644;55.858;37.390;2022-10-31T04:33:38;1.41;69.64
72602;DHT22;60644;55.858;37.390;2022-10-31T04:36:05;1.33;70.68
72602;DHT22;60644;55.858;37.390;2022-10-31T04:38:31;1.39;69.97
72602;DHT22;60644;55.858;37.390;2022-10-31T04:40:58;1.32;70.50
72602;DHT22;60644;55.858;37.390;2022-10-31T04:44:02;1.18;71.93
72602;DHT22;60644;55.858;37.390;2022-10-31T04:46:29;1.20;71.54
72602;DHT22;60644;55.858;37.390;2022-10-31T04:48:57;1.11;72.66
72602;DHT22;60644;55.858;37.390;2022-10-31T04:51:23;1.12;72.97
72602;DHT22;60644;55.858;37.390;2022-10-31T04:53:50;1.13;72.73
72602;DHT22;60644;55.858;37.390;2022-10-31T04:56:51;1.16;72.98
72602;DHT22;60644;55.858;37.390;2022-10-31T04:59:20;1.14;72.33
72602;DHT22;60644;55.858;37.390;2022-10-31T05:01:52;1.10;72.45
72602;DHT22;60644;55.858;37.390;2022-10-31T05:04:25;1.10;72.72
72602;DHT22;60644;55.858;37.390;2022-10-31T05:06:51;1.12;72.54
72602;DHT22;60644;55.858;37.390;2022-10-31T05:09:18;1.14;72.77
72602;DHT22;60644;55.858;37.390;2022-10-31T05:11:44;1.11;73.07
72602;DHT22;60644;55.858;37.390;2022-10-31T05:14:36;1.13;72.83
72602;DHT22;60644;55.858;37.390;2022-10-31T05:17:20;1.12;72.87
72602;DHT22;60644;55.858;37.390;2022-10-31T05:20:17;1.18;72.71
72602;DHT22;60644;55.858;37.390;2022-10-31T05:23:07;1.21;73.20
72602;DHT22;60644;55.858;37.390;2022-10-31T05:25:32;1.17;73.64
72602;DHT22;60644;55.858;37.390;2022-10-31T05:28:02;1.20;73.09
72602;DHT22;60644;55.858;37.390;2022-10-31T05:30:30;1.18;73.45
72602;DHT22;60644;55.858;37.390;2022-10-31T05:32:57;1.17;73.17
72602;DHT22;60644;55.858;37.390;2022-10-31T05:36:01;1.19;73.35
72602;DHT22;60644;55.858;37.390;2022-10-31T05:38:37;1.20;73.58
72602;DHT22;60644;55.858;37.390;2022-10-31T05:41:24;1.18;75.01
72602;DHT22;60644;55.858;37.390;2022-10-31T05:43:53;1.20;74.57
72602;DHT22;60644;55.858;37.390;2022-10-31T05:46:23;1.13;74.74
72602;DHT22;60644;55.858;37.390;2022-10-31T05:49:04;1.09;75.13
72602;DHT22;60644;55.858;37.390;2022-10-31T05:52:05;1.09;75.34
72602;DHT22;60644;55.858;37.390;2022-10-31T05:54:44;1.14;75.38
72602;DHT22;60644;55.858;37.390;2022-10-31T05:57:10;1.21;75.37
72602;DHT22;60644;55.858;37.390;2022-10-31T05:59:36;1.28;75.18
72602;DHT22;60644;55.858;37.390;2022-10-31T06:02:02;1.29;75.28
72602;DHT22;60644;55.858;37.390;2022-10-31T06:04:51;1.39;75.03
72602;DHT22;60644;55.858;37.390;2022-10-31T06:07:18;1.39;75.40
72602;DHT22;60644;55.858;37.390;2022-10-31T06:09:44;1.49;75.31
72602;DHT22;60644;55.858;37.390;2022-10-31T06:12:11;1.58;74.76
72602;DHT22;60644;55.858;37.390;2022-10-31T06:14:55;1.63;74.75
72602;DHT22;60644;55.858;37.390;2022-10-31T06:17:21;1.69;74.69
72602;DHT22;60644;55.858;37.390;2022-10-31T06:19:48;1.64;75.76
72602;DHT22;60644;55.858;37.390;2022-10-31T06:22:19;1.65;76.08
72602;DHT22;60644;55.858;37.390;2022-10-31T06:24:46;1.70;76.22
72602;DHT22;60644;55.858;37.390;2022-10-31T06:27:37;1.72;76.08
72602;DHT22;60644;55.858;37.390;2022-10-31T06:30:10;1.77;75.77
72602;DHT22;60644;55.858;37.390;2022-10-31T06:32:36;1.82;76.32
72602;DHT22;60644;55.858;37.390;2022-10-31T06:35:02;1.83;76.66
72602;DHT22;60644;55.858;37.390;2022-10-31T06:37:29;1.82;76.39
72602;DHT22;60644;55.858;37.390;2022-10-31T06:40:02;1.82;76.18
72602;DHT22;60644;55.858;37.390;2022-10-31T06:42:33;1.84;76.23
72602;DHT22;60644;55.858;37.390;2022-10-31T06:44:59;1.92;76.02
72602;DHT22;60644;55.858;37.390;2022-10-31T06:47:51;1.97;75.61
72602;DHT22;60644;55.858;37.390;2022-10-31T06:50:24;1.98;75.43
72602;DHT22;60644;55.858;37.390;2022-10-31T06:52:52;1.97;75.73
72602;DHT22;60644;55.858;37.390;2022-10-31T06:55:19;1.99;75.54
72602;DHT22;60644;55.858;37.390;2022-10-31T07:00:18;1.98;75.95
72602;DHT22;60644;55.858;37.390;2022-10-31T07:02:58;2.07;74.10
72602;DHT22;60644;55.858;37.390;2022-10-31T07:05:25;2.07;74.54
72602;DHT22;60644;55.858;37.390;2022-10-31T07:07:53;2.10;73.96
72602;DHT22;60644;55.858;37.390;2022-10-31T07:10:22;2.13;74.26
72602;DHT22;60644;55.858;37.390;2022-10-31T07:12:55;2.13;74.23
72602;DHT22;60644;55.858;37.390;2022-10-31T07:15:22;2.11;73.85
72602;DHT22;60644;55.858;37.390;2022-10-31T07:17:48;2.10;73.99
72602;DHT22;60644;55.858;37.390;2022-10-31T07:20:14;2.20;74.07
72602;DHT22;60644;55.858;37.390;2022-10-31T07:22:41;2.26;74.76
72602;DHT22;60644;55.858;37.390;2022-10-31T07:25:08;2.26;75.36
72602;DHT22;60644;55.858;37.390;2022-10-31T07:27:53;2.28;74.86
72602;DHT22;60644;55.858;37.390;2022-10-31T07:30:19;2.29;75.25
72602;DHT22;60644;55.858;37.390;2022-10-31T07:32:49;2.29;75.05
72602;DHT22;60644;55.858;37.390;2022-10-31T07:35:22;2.36;73.35
72602;DHT22;60644;55.858;37.390;2022-10-31T07:37:55;2.35;73.11
72602;DHT22;60644;55.858;37.390;2022-10-31T07:40:23;2.40;73.73
72602;DHT22;60644;55.858;37.390;2022-10-31T07:42:52;2.46;73.73
72602;DHT22;60644;55.858;37.390;2022-10-31T07:45:42;2.52;72.70
72602;DHT22;60644;55.858;37.390;2022-10-31T07:48:31;2.55;72.59
72602;DHT22;60644;55.858;37.390;2022-10-31T07:51:27;2.53;72.94
72602;DHT22;60644;55.858;37.390;2022-10-31T07:54:11;2.53;73.22
72602;DHT22;60644;55.858;37.390;2022-10-31T07:56:37;2.54;73.20
72602;DHT22;60644;55.858;37.390;2022-10-31T07:59:04;2.64;72.80
72602;DHT22;60644;55.858;37.390;2022-10-31T08:01:30;2.64;72.37
72602;DHT22;60644;55.858;37.390;2022-10-31T08:04:18;2.65;72.17
72602;DHT22;60644;55.858;37.390;2022-10-31T08:07:03;2.70;72.09
72602;DHT22;60644;55.858;37.390;2022-10-31T08:09:33;2.79;71.61
72602;DHT22;60644;55.858;37.390;2022-10-31T08:12:04;2.87;71.61
72602;DHT22;60644;55.858;37.390;2022-10-31T08:14:32;2.91;70.86
72602;DHT22;60644;55.858;37.390;2022-10-31T08:16:58;2.98;70.35
72602;DHT22;60644;55.858;37.390;2022-10-31T08:19:32;2.98;70.60
72602;DHT22;60644;55.858;37.390;2022-10-31T08:21:57;2.98;70.37
72602;DHT22;60644;55.858;37.390;2022-10-31T08:24:24;3.02;70.99
72602;DHT22;60644;55.858;37.390;2022-10-31T08:26:50;3.04;70.66
72602;DHT22;60644;55.858;37.390;2022-10-31T08:29:16;3.08;70.61
72602;DHT22;60644;55.858;37.390;2022-10-31T08:31:45;3.12;70.79
72602;DHT22;60644;55.858;37.390;2022-10-31T08:34:30;3.13;70.13
72602;DHT22;60644;55.858;37.390;2022-10-31T08:37:14;3.23;69.23
72602;DHT22;60644;55.858;37.390;2022-10-31T08:39:47;3.20;69.29
72602;DHT22;60644;55.858;37.390;2022-10-31T08:42:13;3.20;68.35
72602;DHT22;60644;55.858;37.390;2022-10-31T08:44:39;3.25;68.25
72602;DHT22;60644;55.858;37.390;2022-10-31T08:47:05;3.24;67.02
72602;DHT22;60644;55.858;37.390;2022-10-31T08:49:33;3.25;67.51
72602;DHT22;60644;55.858;37.390;2022-10-31T08:51:59;3.30;67.20
72602;DHT22;60644;55.858;37.390;2022-10-31T08:54:30;3.26;67.23
72602;DHT22;60644;55.858;37.390;2022-10-31T08:56:56;3.28;67.61
72602;DHT22;60644;55.858;37.390;2022-10-31T08:59:41;3.27;65.96
72602;DHT22;60644;55.858;37.390;2022-10-31T09:02:23;3.24;64.84
72602;DHT22;60644;55.858;37.390;2022-10-31T09:04:52;3.25;66.24
72602;DHT22;60644;55.858;37.390;2022-10-31T09:07:18;3.30;66.40
72602;DHT22;60644;55.858;37.390;2022-10-31T09:09:44;3.29;63.71
72602;DHT22;60644;55.858;37.390;2022-10-31T09:12:11;3.35;65.62
72602;DHT22;60644;55.858;37.390;2022-10-31T09:15:12;3.47;64.54
72602;DHT22;60644;55.858;37.390;2022-10-31T09:17:54;3.56;66.79
72602;DHT22;60644;55.858;37.390;2022-10-31T09:20:44;3.60;68.12
72602;DHT22;60644;55.858;37.390;2022-10-31T09:23:13;3.59;68.26
72602;DHT22;60644;55.858;37.390;2022-10-31T09:25:40;3.59;68.22
72602;DHT22;60644;55.858;37.390;2022-10-31T09:28:31;3.60;66.15
72602;DHT22;60644;55.858;37.390;2022-10-31T09:31:03;3.71;65.43
72602;DHT22;60644;55.858;37.390;2022-10-31T09:33:54;3.76;65.30
72602;DHT22;60644;55.858;37.390;2022-10-31T09:36:40;3.64;67.11
72602;DHT22;60644;55.858;37.390;2022-10-31T09:39:13;3.54;68.20
72602;DHT22;60644;55.858;37.390;2022-10-31T09:41:48;3.43;68.77
72602;DHT22;60644;55.858;37.390;2022-10-31T09:47:14;3.43;68.74
72602;DHT22;60644;55.858;37.390;2022-10-31T09:50:07;3.42;68.92
72602;DHT22;60644;55.858;37.390;2022-10-31T09:52:43;3.55;68.46
72602;DHT22;60644;55.858;37.390;2022-10-31T09:55:18;3.56;68.22
72602;DHT22;60644;55.858;37.390;2022-10-31T09:57:46;3.52;67.16
72602;DHT22;60644;55.858;37.390;2022-10-31T10:00:19;3.46;67.24
72602;DHT22;60644;55.858;37.390;2022-10-31T10:02:57;3.55;67.71
72602;DHT22;60644;55.858;37.390;2022-10-31T10:05:34;3.57;68.24
72602;DHT22;60644;55.858;37.390;2022-10-31T10:08:16;3.43;70.58
72602;DHT22;60644;55.858;37.390;2022-10-31T10:20:21;3.49;69.17
72602;DHT22;60644;55.858;37.390;2022-10-31T10:23:16;3.58;69.57
72602;DHT22;60644;55.858;37.390;2022-10-31T10:25:47;3.54;70.48
72602;DHT22;60644;55.858;37.390;2022-10-31T10:28:30;3.49;71.89
72602;DHT22;60644;55.858;37.390;2022-10-31T10:31:11;3.55;71.51
72602;DHT22;60644;55.858;37.390;2022-10-31T10:33:45;3.58;71.09
72602;DHT22;60644;55.858;37.390;2022-10-31T10:36:24;3.62;70.11
72602;DHT22;60644;55.858;37.390;2022-10-31T10:39:04;3.65;70.98
72602;DHT22;60644;55.858;37.390;2022-10-31T10:41:33;3.74;68.74
72602;DHT22;60644;55.858;37.390;2022-10-31T10:43:59;3.85;68.86
72602;DHT22;60644;55.858;37.390;2022-10-31T10:46:44;3.75;68.20
72602;DHT22;60644;55.858;37.390;2022-10-31T10:49:43;3.71;68.21
72602;DHT22;60644;55.858;37.390;2022-10-31T10:55:17;3.44;68.10
72602;DHT22;60644;55.858;37.390;2022-10-31T11:00:26;3.50;69.15
72602;DHT22;60644;55.858;37.390;2022-10-31T11:02:53;3.50;68.29
72602;DHT22;60644;55.858;37.390;2022-10-31T11:05:33;3.56;67.84
72602;DHT22;60644;55.858;37.390;2022-10-31T11:08:00;3.47;67.01
72602;DHT22;60644;55.858;37.390;2022-10-31T11:10:26;3.46;67.91
72602;DHT22;60644;55.858;37.390;2022-10-31T11:13:03;3.48;68.30
72602;DHT22;60644;55.858;37.390;2022-10-31T11:15:33;3.45;67.93
72602;DHT22;60644;55.858;37.390;2022-10-31T11:18:01;3.53;67.41
72602;DHT22;60644;55.858;37.390;2022-10-31T11:20:29;3.46;66.64
72602;DHT22;60644;55.858;37.390;2022-10-31T11:23:03;3.52;67.52
72602;DHT22;60644;55.858;37.390;2022-10-31T11:25:29;3.48;67.76
72602;DHT22;60644;55.858;37.390;2022-10-31T11:28:13;3.40;67.36
72602;DHT22;60644;55.858;37.390;2022-10-31T11:30:48;3.47;67.52
72602;DHT22;60644;55.858;37.390;2022-10-31T11:33:24;3.54;67.38
72602;DHT22;60644;55.858;37.390;2022-10-31T11:35:52;3.50;67.04
72602;DHT22;60644;55.858;37.390;2022-10-31T11:38:20;3.47;67.23
72602;DHT22;60644;55.858;37.390;2022-10-31T11:40:56;3.55;67.30
72602;DHT22;60644;55.858;37.390;2022-10-31T11:43:23;3.56;67.49
72602;DHT22;60644;55.858;37.390;2022-10-31T11:45:50;3.56;67.62
72602;DHT22;60644;55.858;37.390;2022-10-31T11:48:18;3.63;67.75
72602;DHT22;60644;55.858;37.390;2022-10-31T11:50:51;3.59;67.92
72602;DHT22;60644;55.858;37.390;2022-10-31T11:53:29;3.59;68.09
72602;DHT22;60644;55.858;37.390;2022-10-31T11:56:14;3.55;68.30
72602;DHT22;60644;55.858;37.390;2022-10-31T11:58:41;3.57;68.38
72602;DHT22;60644;55.858;37.390;2022-10-31T12:01:24;3.60;68.40
72602;DHT22;60644;55.858;37.390;2022-10-31T12:04:09;3.64;68.43
72602;DHT22;60644;55.858;37.390;2022-10-31T12:06:43;3.56;68.91
72602;DHT22;60644;55.858;37.390;2022-10-31T12:09:28;3.61;68.85
72602;DHT22;60644;55.858;37.390;2022-10-31T12:17:33;3.59;69.28
72602;DHT22;60644;55.858;37.390;2022-10-31T12:36:42;3.50;70.64
72602;DHT22;60644;55.858;37.390;2022-10-31T12:58:29;3.52;69.91
72602;DHT22;60644;55.858;37.390;2022-10-31T13:01:14;3.61;69.71
72602;DHT22;60644;55.858;37.390;2022-10-31T13:06:36;3.42;69.69
72602;DHT22;60644;55.858;37.390;2022-10-31T13:09:09;3.44;70.09
72602;DHT22;60644;55.858;37.390;2022-10-31T13:11:41;3.57;69.47
72602;DHT22;60644;55.858;37.390;2022-10-31T13:14:25;3.58;69.42
72602;DHT22;60644;55.858;37.390;2022-10-31T13:16:53;3.57;69.01
72602;DHT22;60644;55.858;37.390;2022-10-31T13:19:27;3.56;68.87
72602;DHT22;60644;55.858;37.390;2022-10-31T13:22:08;3.61;68.59
72602;DHT22;60644;55.858;37.390;2022-10-31T13:25:03;3.61;68.84
72602;DHT22;60644;55.858;37.390;2022-10-31T13:28:01;3.64;68.58
72602;DHT22;60644;55.858;37.390;2022-10-31T13:30:34;3.68;68.82
72602;DHT22;60644;55.858;37.390;2022-10-31T13:33:17;3.71;68.64
72602;DHT22;60644;55.858;37.390;2022-10-31T13:38:40;3.64;68.88
72602;DHT22;60644;55.858;37.390;2022-10-31T13:41:32;3.61;68.77
72602;DHT22;60644;55.858;37.390;2022-10-31T13:44:20;3.57;68.75
72602;DHT22;60644;55.858;37.390;2022-10-31T13:46:47;3.64;68.87
72602;DHT22;60644;55.858;37.390;2022-10-31T13:54:42;3.71;68.88
72602;DHT22;60644;55.858;37.390;2022-10-31T13:57:21;3.61;69.30
72602;DHT22;60644;55.858;37.390;2022-10-31T13:59:53;3.62;69.27
72602;DHT22;60644;55.858;37.390;2022-10-31T14:02:32;3.63;69.27
72602;DHT22;60644;55.858;37.390;2022-10-31T14:05:27;3.71;69.50
72602;DHT22;60644;55.858;37.390;2022-10-31T14:07:55;3.61;69.71
72602;DHT22;60644;55.858;37.390;2022-10-31T14:10:30;3.58;69.61
72602;DHT22;60644;55.858;37.390;2022-10-31T14:13:23;3.65;69.68
72602;DHT22;60644;55.858;37.390;2022-10-31T14:16:26;3.69;69.53
72602;DHT22;60644;55.858;37.390;2022-10-31T14:18:58;3.56;69.51
72602;DHT22;60644;55.858;37.390;2022-10-31T14:21:30;3.47;69.81
72602;DHT22;60644;55.858;37.390;2022-10-31T14:23:57;3.53;70.03
72602;DHT22;60644;55.858;37.390;2022-10-31T14:28:53;3.57;69.11
72602;DHT22;60644;55.858;37.390;2022-10-31T14:34:22;3.54;69.12
72602;DHT22;60644;55.858;37.390;2022-10-31T14:51:34;3.73;68.42
72602;DHT22;60644;55.858;37.390;2022-10-31T14:54:02;3.58;68.91
72602;DHT22;60644;55.858;37.390;2022-10-31T14:56:32;3.48;69.00
72602;DHT22;60644;55.858;37.390;2022-10-31T14:59:03;3.65;68.78
72602;DHT22;60644;55.858;37.390;2022-10-31T15:01:35;3.62;68.87
72602;DHT22;60644;55.858;37.390;2022-10-31T15:04:15;3.61;68.57
72602;DHT22;60644;55.858;37.390;2022-10-31T15:06:46;3.59;68.55
72602;DHT22;60644;55.858;37.390;2022-10-31T15:09:26;3.58;68.37
72602;DHT22;60644;55.858;37.390;2022-10-31T15:11:53;3.67;68.09
72602;DHT22;60644;55.858;37.390;2022-10-31T15:14:30;3.55;68.11
72602;DHT22;60644;55.858;37.390;2022-10-31T15:16:57;3.60;68.08
72602;DHT22;60644;55.858;37.390;2022-10-31T15:19:26;3.70;67.59
72602;DHT22;60644;55.858;37.390;2022-10-31T15:21:54;3.65;67.60
72602;DHT22;60644;55.858;37.390;2022-10-31T15:24:23;3.59;67.68
72602;DHT22;60644;55.858;37.390;2022-10-31T15:26:51;3.57;67.55
72602;DHT22;60644;55.858;37.390;2022-10-31T15:29:20;3.60;67.99
72602;DHT22;60644;55.858;37.390;2022-10-31T15:34:42;3.75;67.85
72602;DHT22;60644;55.858;37.390;2022-10-31T15:37:16;3.73;67.65
72602;DHT22;60644;55.858;37.390;2022-10-31T15:39:43;3.54;67.87
72602;DHT22;60644;55.858;37.390;2022-10-31T15:42:33;3.52;67.82
72602;DHT22;60644;55.858;37.390;2022-10-31T15:45:05;3.55;67.27
72602;DHT22;60644;55.858;37.390;2022-10-31T15:47:32;3.56;67.23
72602;DHT22;60644;55.858;37.390;2022-10-31T15:49:59;3.50;67.20
72602;DHT22;60644;55.858;37.390;2022-10-31T15:52:37;3.44;67.55
72602;DHT22;60644;55.858;37.390;2022-10-31T15:55:18;3.55;67.38
72602;DHT22;60644;55.858;37.390;2022-10-31T15:57:47;3.49;66.79
72602;DHT22;60644;55.858;37.390;2022-10-31T16:02:47;3.53;67.25
72602;DHT22;60644;55.858;37.390;2022-10-31T16:05:19;3.53;67.40
72602;DHT22;60644;55.858;37.390;2022-10-31T16:07:49;3.58;67.13
72602;DHT22;60644;55.858;37.390;2022-10-31T16:10:25;3.57;67.46
72602;DHT22;60644;55.858;37.390;2022-10-31T16:12:52;3.63;67.40
72602;DHT22;60644;55.858;37.390;2022-10-31T16:15:20;3.65;67.27
72602;DHT22;60644;55.858;37.390;2022-10-31T16:17:49;3.58;67.30
72602;DHT22;60644;55.858;37.390;2022-10-31T16:20:26;3.62;67.25
72602;DHT22;60644;55.858;37.390;2022-10-31T16:22:53;3.58;67.16
72602;DHT22;60644;55.858;37.390;2022-10-31T16:25:37;3.54;67.04
72602;DHT22;60644;55.858;37.390;2022-10-31T16:28:13;3.52;67.39
72602;DHT22;60644;55.858;37.390;2022-10-31T16:30:45;3.53;67.33
72602;DHT22;60644;55.858;37.390;2022-10-31T16:33:29;3.58;67.30
72602;DHT22;60644;55.858;37.390;2022-10-31T16:35:57;3.62;67.08
72602;DHT22;60644;55.858;37.390;2022-10-31T16:38:24;3.61;66.94
72602;DHT22;60644;55.858;37.390;2022-10-31T16:40:51;3.56;67.07
72602;DHT22;60644;55.858;37.390;2022-10-31T16:43:18;3.60;66.88
72602;DHT22;60644;55.858;37.390;2022-10-31T16:45:47;3.60;66.93
72602;DHT22;60644;55.858;37.390;2022-10-31T16:48:18;3.59;66.98
72602;DHT22;60644;55.858;37.390;2022-10-31T16:50:45;3.54;67.30
72602;DHT22;60644;55.858;37.390;2022-10-31T16:53:12;3.49;67.45
72602;DHT22;60644;55.858;37.390;2022-10-31T16:58:21;3.59;67.40
72602;DHT22;60644;55.858;37.390;2022-10-31T17:00:47;3.56;67.41
72602;DHT22;60644;55.858;37.390;2022-10-31T17:03:13;3.58;67.58
72602;DHT22;60644;55.858;37.390;2022-10-31T17:05:39;3.56;67.55
72602;DHT22;60644;55.858;37.390;2022-10-31T17:08:05;3.57;67.53
72602;DHT22;60644;55.858;37.390;2022-10-31T17:10:31;3.54;67.64
72602;DHT22;60644;55.858;37.390;2022-10-31T17:12:58;3.43;67.92
72602;DHT22;60644;55.858;37.390;2022-10-31T17:15:26;3.42;67.84
72602;DHT22;60644;55.858;37.390;2022-10-31T17:17:53;3.39;68.14
72602;DHT22;60644;55.858;37.390;2022-10-31T17:20:27;3.48;67.76
72602;DHT22;60644;55.858;37.390;2022-10-31T17:22:55;3.30;67.83
72602;DHT22;60644;55.858;37.390;2022-10-31T17:25:26;3.38;67.67
72602;DHT22;60644;55.858;37.390;2022-10-31T17:27:52;3.31;68.30
72602;DHT22;60644;55.858;37.390;2022-10-31T17:30:19;3.39;68.20
72602;DHT22;60644;55.858;37.390;2022-10-31T17:32:46;3.39;68.06
72602;DHT22;60644;55.858;37.390;2022-10-31T17:35:13;3.40;67.85
72602;DHT22;60644;55.858;37.390;2022-10-31T17:37:40;3.44;67.91
72602;DHT22;60644;55.858;37.390;2022-10-31T17:40:12;3.42;67.85
72602;DHT22;60644;55.858;37.390;2022-10-31T17:42:38;3.34;68.17
72602;DHT22;60644;55.858;37.390;2022-10-31T17:45:05;3.28;68.14
72602;DHT22;60644;55.858;37.390;2022-10-31T17:47:32;3.19;68.33
72602;DHT22;60644;55.858;37.390;2022-10-31T17:49:58;3.23;68.65
72602;DHT22;60644;55.858;37.390;2022-10-31T17:52:24;3.20;68.52
72602;DHT22;60644;55.858;37.390;2022-10-31T17:54:50;3.24;68.42
72602;DHT22;60644;55.858;37.390;2022-10-31T17:57:16;3.31;67.93
72602;DHT22;60644;55.858;37.390;2022-10-31T17:59:42;3.33;67.59
72602;DHT22;60644;55.858;37.390;2022-10-31T18:02:09;3.34;67.43
72602;DHT22;60644;55.858;37.390;2022-10-31T18:04:36;3.38;67.25
72602;DHT22;60644;55.858;37.390;2022-10-31T18:07:02;3.40;67.35
72602;DHT22;60644;55.858;37.390;2022-10-31T18:09:29;3.33;67.49
72602;DHT22;60644;55.858;37.390;2022-10-31T18:11:55;3.40;67.33